createdAt,value
2018-06-27T00:02:27.531Z,15.25
2018-06-27T00:04:56.234Z,15.19
2018-06-27T00:07:24.940Z,15.19
2018-06-27T00:09:53.714Z,14.96
2018-06-27T00:12:22.619Z,14.77
2018-06-27T00:14:51.350Z,14.56
2018-06-27T00:17:20.527Z,14.42
2018-06-27T00:19:49.243Z,14.45
2018-06-27T00:22:18.000Z,14.46
2018-06-27T00:24:46.734Z,14.51
2018-06-27T00:27:15.514Z,14.58
2018-06-27T00:29:44.278Z,14.57
2018-06-27T00:32:12.978Z,14.68
2018-06-27T00:34:41.724Z,14.62
2018-06-27T00:37:10.486Z,14.61
2018-06-27T00:39:39.193Z,14.62
2018-06-27T00:42:07.955Z,14.65
2018-06-27T00:44:36.655Z,14.66
2018-06-27T00:47:05.871Z,14.68
2018-06-27T00:49:34.618Z,14.78
2018-06-27T00:52:03.766Z,14.81
2018-06-27T00:54:32.470Z,14.88
2018-06-27T00:57:01.190Z,14.94
2018-06-27T00:59:29.900Z,14.97
2018-06-27T01:01:59.122Z,15.02
2018-06-27T01:04:28.621Z,15.02
2018-06-27T01:06:57.342Z,14.91
2018-06-27T01:09:26.144Z,14.91
2018-06-27T01:11:54.865Z,14.94
2018-06-27T01:14:23.578Z,14.96
2018-06-27T01:16:52.682Z,15.02
2018-06-27T01:19:21.394Z,15.04
2018-06-27T01:21:50.278Z,14.98
2018-06-27T01:24:19.246Z,14.92
2018-06-27T01:26:48.534Z,14.91
2018-06-27T01:29:17.282Z,14.89
2018-06-27T01:31:46.039Z,14.88
2018-06-27T01:34:14.757Z,14.85
2018-06-27T01:36:43.492Z,14.87
2018-06-27T01:39:12.299Z,14.93
2018-06-27T01:41:41.044Z,15.00
2018-06-27T01:44:09.756Z,15.04
2018-06-27T01:46:38.808Z,15.08
2018-06-27T01:49:07.546Z,15.15
2018-06-27T01:51:36.251Z,15.16
2018-06-27T01:54:04.981Z,15.19
2018-06-27T01:56:33.772Z,15.15
2018-06-27T01:59:02.579Z,15.19
2018-06-27T02:01:31.332Z,15.15
2018-06-27T02:04:00.069Z,15.12
2018-06-27T02:06:28.796Z,15.07
2018-06-27T02:08:57.511Z,15.08
2018-06-27T02:11:26.254Z,15.10
2018-06-27T02:13:54.938Z,15.02
2018-06-27T02:16:23.679Z,15.04
2018-06-27T02:18:52.383Z,14.97
2018-06-27T02:21:21.151Z,14.91
2018-06-27T02:23:49.887Z,14.93
2018-06-27T02:26:18.626Z,14.94
2018-06-27T02:28:47.397Z,14.92
2018-06-27T02:31:16.148Z,14.95
2018-06-27T02:33:44.891Z,14.93
2018-06-27T02:36:13.626Z,14.91
2018-06-27T02:38:42.352Z,14.93
2018-06-27T02:41:11.506Z,14.95
2018-06-27T02:43:40.206Z,14.98
2018-06-27T02:46:09.766Z,14.94
2018-06-27T02:48:38.478Z,14.93
2018-06-27T02:51:07.186Z,14.94
2018-06-27T02:53:37.793Z,14.90
2018-06-27T02:56:08.554Z,14.79
2018-06-27T02:58:37.319Z,14.73
2018-06-27T03:01:06.139Z,14.70
2018-06-27T03:03:34.902Z,14.67
2018-06-27T03:06:03.613Z,14.71
2018-06-27T03:08:32.370Z,14.77
2018-06-27T03:11:01.161Z,14.82
2018-06-27T03:13:29.891Z,14.79
2018-06-27T03:15:59.160Z,14.84
2018-06-27T03:18:28.102Z,14.83
2018-06-27T03:20:57.120Z,14.85
2018-06-27T03:23:25.839Z,14.81
2018-06-27T03:25:54.584Z,14.81
2018-06-27T03:28:23.331Z,14.84
2018-06-27T03:30:52.090Z,14.82
2018-06-27T03:33:20.813Z,14.88
2018-06-27T03:35:49.499Z,14.91
2018-06-27T03:38:18.273Z,14.93
2018-06-27T03:40:47.027Z,14.88
2018-06-27T03:43:15.790Z,14.86
2018-06-27T03:45:44.527Z,14.90
2018-06-27T03:48:13.263Z,14.89
2018-06-27T03:50:42.326Z,14.87
2018-06-27T03:53:11.016Z,14.84
2018-06-27T03:55:39.751Z,14.86
2018-06-27T03:58:08.426Z,14.91
2018-06-27T04:00:37.126Z,14.96
2018-06-27T04:03:05.919Z,14.96
2018-06-27T04:05:34.622Z,14.96
2018-06-27T04:08:03.739Z,14.99
2018-06-27T04:10:32.451Z,15.01
2018-06-27T04:13:01.401Z,15.04
2018-06-27T04:15:30.150Z,15.03
2018-06-27T04:17:58.921Z,15.05
2018-06-27T04:20:27.913Z,15.08
2018-06-27T04:22:56.679Z,15.04
2018-06-27T04:25:25.470Z,15.04
2018-06-27T04:27:54.377Z,15.04
2018-06-27T04:30:23.130Z,15.09
2018-06-27T04:32:51.924Z,15.12
2018-06-27T04:35:20.704Z,15.16
2018-06-27T04:37:49.408Z,15.06
2018-06-27T04:40:18.345Z,15.09
2018-06-27T04:42:47.053Z,15.13
2018-06-27T04:45:15.804Z,15.17
2018-06-27T04:47:44.531Z,15.28
2018-06-27T04:50:13.312Z,15.27
2018-06-27T04:52:42.070Z,15.26
2018-06-27T04:55:11.309Z,15.35
2018-06-27T04:57:40.121Z,15.35
2018-06-27T05:00:09.251Z,15.38
2018-06-27T05:02:39.688Z,15.40
2018-06-27T05:05:08.407Z,15.42
2018-06-27T05:07:37.195Z,15.41
2018-06-27T05:10:05.929Z,15.37
2018-06-27T05:12:34.678Z,15.34
2018-06-27T05:15:03.462Z,15.31
2018-06-27T05:17:32.158Z,15.32
2018-06-27T05:20:00.878Z,15.30
2018-06-27T05:22:29.624Z,15.34
2018-06-27T05:24:58.761Z,15.30
2018-06-27T05:27:27.546Z,15.25
2018-06-27T05:29:56.407Z,15.23
2018-06-27T05:32:25.174Z,15.18
2018-06-27T05:34:54.074Z,15.27
2018-06-27T05:37:22.792Z,15.32
2018-06-27T05:39:51.565Z,15.40
2018-06-27T05:42:20.362Z,15.51
2018-06-27T05:44:49.078Z,15.58
2018-06-27T05:47:17.959Z,15.65
2018-06-27T05:49:46.687Z,15.72
2018-06-27T05:52:15.410Z,15.74
2018-06-27T05:54:44.117Z,15.75
2018-06-27T05:57:12.849Z,15.71
2018-06-27T05:59:41.592Z,15.73
2018-06-27T06:02:10.310Z,15.77
2018-06-27T06:04:39.062Z,15.65
2018-06-27T06:07:07.824Z,15.58
2018-06-27T06:09:36.536Z,15.65
2018-06-27T06:12:05.316Z,15.62
2018-06-27T06:14:34.076Z,15.62
2018-06-27T06:17:03.042Z,15.72
2018-06-27T06:19:31.738Z,15.73
2018-06-27T06:22:00.499Z,15.70
2018-06-27T06:24:29.259Z,15.69
2018-06-27T06:26:57.947Z,15.75
2018-06-27T06:29:26.667Z,15.84
2018-06-27T06:31:55.387Z,15.86
2018-06-27T06:34:24.097Z,16.02
2018-06-27T06:36:52.849Z,16.07
2018-06-27T06:39:21.590Z,16.03
2018-06-27T06:41:50.307Z,16.08
2018-06-27T06:44:19.076Z,16.16
2018-06-27T06:46:47.791Z,16.26
2018-06-27T06:49:16.508Z,16.26
2018-06-27T06:51:45.228Z,16.19
2018-06-27T06:54:13.962Z,16.26
2018-06-27T06:56:42.803Z,16.34
2018-06-27T06:59:11.958Z,16.29
2018-06-27T07:01:40.711Z,16.28
2018-06-27T07:04:09.502Z,16.34
2018-06-27T07:06:38.251Z,16.37
2018-06-27T07:09:09.845Z,16.36
2018-06-27T07:11:39.120Z,16.33
2018-06-27T07:14:08.370Z,16.41
2018-06-27T07:16:37.178Z,16.52
2018-06-27T07:19:06.238Z,16.52
2018-06-27T07:21:34.995Z,16.54
2018-06-27T07:24:04.292Z,16.54
2018-06-27T07:26:33.068Z,16.51
2018-06-27T07:29:01.783Z,16.59
2018-06-27T07:31:30.565Z,16.63
2018-06-27T07:33:59.691Z,16.64
2018-06-27T07:36:28.355Z,16.70
2018-06-27T07:38:57.248Z,16.78
2018-06-27T07:41:26.088Z,16.84
2018-06-27T07:43:54.998Z,16.92
2018-06-27T07:46:23.751Z,17.05
2018-06-27T07:48:52.860Z,17.08
2018-06-27T07:51:21.599Z,16.96
2018-06-27T07:53:50.363Z,16.66
2018-06-27T07:56:19.087Z,16.68
2018-06-27T07:58:47.826Z,16.78
2018-06-27T08:01:16.932Z,16.84
2018-06-27T08:03:45.966Z,16.95
2018-06-27T08:06:14.710Z,16.93
2018-06-27T08:08:43.527Z,16.88
2018-06-27T08:11:12.263Z,16.86
2018-06-27T08:13:40.999Z,16.76
2018-06-27T08:16:09.794Z,16.70
2018-06-27T08:18:40.561Z,16.70
2018-06-27T08:21:09.835Z,16.71
2018-06-27T08:23:39.315Z,16.72
2018-06-27T08:26:08.123Z,16.59
2018-06-27T08:28:37.083Z,16.62
2018-06-27T08:31:05.846Z,16.56
2018-06-27T08:33:34.532Z,16.69
2018-06-27T08:36:03.272Z,16.96
2018-06-27T08:38:32.014Z,17.20
2018-06-27T08:41:00.760Z,17.30
2018-06-27T08:43:29.735Z,17.42
2018-06-27T08:45:58.447Z,17.54
2018-06-27T08:48:27.205Z,17.63
2018-06-27T08:50:55.937Z,17.69
2018-06-27T08:53:24.749Z,17.72
2018-06-27T08:55:53.592Z,17.89
2018-06-27T08:58:22.363Z,17.91
2018-06-27T09:00:51.146Z,17.96
2018-06-27T09:03:20.794Z,17.82
2018-06-27T09:05:49.515Z,17.88
2018-06-27T09:08:18.287Z,18.10
2018-06-27T09:10:47.015Z,18.17
2018-06-27T09:13:15.706Z,18.13
2018-06-27T09:15:44.764Z,18.34
2018-06-27T09:18:13.504Z,18.42
2018-06-27T09:20:42.248Z,18.55
2018-06-27T09:23:10.971Z,18.65
2018-06-27T09:25:40.135Z,18.82
2018-06-27T09:28:08.891Z,18.92
2018-06-27T09:30:38.068Z,19.05
2018-06-27T09:33:06.863Z,18.87
2018-06-27T09:35:35.642Z,18.58
2018-06-27T09:38:04.426Z,18.47
2018-06-27T09:40:33.156Z,18.33
2018-06-27T09:43:01.936Z,18.44
2018-06-27T09:45:30.668Z,18.44
2018-06-27T09:47:59.374Z,18.53
2018-06-27T09:50:28.188Z,18.56
2018-06-27T09:52:57.096Z,18.58
2018-06-27T09:55:25.828Z,18.52
2018-06-27T09:57:54.582Z,18.40
2018-06-27T10:00:28.485Z,18.32
2018-06-27T10:02:57.201Z,18.30
2018-06-27T10:05:25.879Z,18.29
2018-06-27T10:07:54.844Z,18.22
2018-06-27T10:10:23.550Z,18.12
2018-06-27T10:12:52.380Z,18.13
2018-06-27T10:15:21.099Z,18.08
2018-06-27T10:17:49.823Z,17.95
2018-06-27T10:20:18.551Z,17.86
2018-06-27T10:22:47.374Z,17.73
2018-06-27T10:25:16.109Z,17.53
2018-06-27T10:27:44.811Z,17.42
2018-06-27T10:30:13.608Z,17.36
2018-06-27T10:32:42.437Z,17.36
2018-06-27T10:35:11.188Z,17.31
2018-06-27T10:37:40.070Z,17.21
2018-06-27T10:40:08.820Z,17.16
2018-06-27T10:42:37.606Z,17.22
2018-06-27T10:45:06.473Z,17.24
2018-06-27T10:47:35.281Z,17.19
2018-06-27T10:50:04.092Z,17.05
2018-06-27T10:52:32.876Z,17.11
2018-06-27T10:55:05.829Z,17.20
2018-06-27T10:57:34.545Z,17.24
2018-06-27T11:00:04.724Z,17.29
2018-06-27T11:02:33.526Z,17.26
2018-06-27T11:05:02.298Z,17.28
2018-06-27T11:07:31.026Z,17.30
2018-06-27T11:09:59.814Z,17.34
2018-06-27T11:12:28.591Z,17.34
2018-06-27T11:14:57.368Z,17.39
2018-06-27T11:17:26.191Z,17.31
2018-06-27T11:19:55.007Z,17.21
2018-06-27T11:22:23.836Z,17.11
2018-06-27T11:24:52.611Z,17.03
2018-06-27T11:27:21.356Z,16.88
2018-06-27T11:29:50.134Z,16.78
2018-06-27T11:32:18.896Z,16.79
2018-06-27T11:34:48.020Z,16.90
2018-06-27T11:37:17.140Z,17.03
2018-06-27T11:39:46.150Z,16.99
2018-06-27T11:42:14.857Z,17.03
2018-06-27T11:44:43.593Z,16.99
2018-06-27T11:47:12.352Z,16.96
2018-06-27T11:49:41.482Z,17.14
2018-06-27T11:52:10.248Z,17.17
2018-06-27T11:54:39.149Z,17.10
2018-06-27T11:57:08.022Z,17.19
2018-06-27T11:59:36.798Z,17.24
2018-06-27T12:02:05.904Z,17.21
2018-06-27T12:04:34.647Z,17.06
2018-06-27T12:07:03.443Z,16.95
2018-06-27T12:09:32.190Z,16.89
2018-06-27T12:12:00.880Z,16.83
2018-06-27T12:14:29.640Z,16.82
2018-06-27T12:16:58.433Z,16.96
2018-06-27T12:19:27.365Z,16.96
2018-06-27T12:21:56.472Z,16.97
2018-06-27T12:24:25.260Z,17.01
2018-06-27T12:26:54.094Z,17.01
2018-06-27T12:29:22.854Z,16.95
2018-06-27T12:31:51.907Z,16.92
2018-06-27T12:34:20.662Z,16.94
2018-06-27T12:36:49.451Z,16.96
2018-06-27T12:39:18.271Z,16.87
2018-06-27T12:41:46.987Z,16.84
2018-06-27T12:44:16.029Z,16.92
2018-06-27T12:46:44.982Z,16.90
2018-06-27T12:49:13.757Z,16.93
2018-06-27T12:51:43.055Z,17.04
2018-06-27T12:54:11.866Z,17.02
2018-06-27T12:56:40.984Z,17.02
2018-06-27T12:59:10.146Z,17.08
2018-06-27T13:01:38.941Z,17.02
2018-06-27T13:04:07.755Z,17.05
2018-06-27T13:06:36.873Z,17.05
2018-06-27T13:09:09.442Z,16.95
2018-06-27T13:11:39.495Z,16.98
2018-06-27T13:14:08.807Z,17.02
2018-06-27T13:16:38.032Z,17.05
2018-06-27T13:19:07.350Z,16.99
2018-06-27T13:21:36.114Z,16.98
2018-06-27T13:24:04.937Z,16.99
2018-06-27T13:26:33.720Z,17.10
2018-06-27T13:29:02.865Z,17.21
2018-06-27T13:31:31.667Z,17.22
2018-06-27T13:34:00.366Z,17.10
2018-06-27T13:36:29.161Z,17.15
2018-06-27T13:38:58.289Z,17.24
2018-06-27T13:41:27.035Z,17.27
2018-06-27T13:43:55.899Z,17.27
2018-06-27T13:46:24.672Z,17.35
2018-06-27T13:48:53.463Z,17.45
2018-06-27T13:51:22.268Z,17.45
2018-06-27T13:53:51.047Z,17.39
2018-06-27T13:56:19.742Z,17.33
2018-06-27T13:58:48.554Z,17.32
2018-06-27T14:01:17.315Z,17.34
2018-06-27T14:03:46.897Z,17.26
2018-06-27T14:06:15.580Z,17.01
2018-06-27T14:08:44.324Z,16.78
2018-06-27T14:11:13.062Z,16.77
2018-06-27T14:13:41.778Z,16.73
2018-06-27T14:16:10.569Z,16.85
2018-06-27T14:18:39.305Z,16.79
2018-06-27T14:21:08.210Z,16.72
2018-06-27T14:23:37.270Z,16.75
2018-06-27T14:26:06.286Z,16.85
2018-06-27T14:28:35.093Z,16.90
2018-06-27T14:31:04.227Z,16.95
2018-06-27T14:33:32.936Z,16.95
2018-06-27T14:36:02.462Z,16.97
2018-06-27T14:38:31.309Z,16.98
2018-06-27T14:41:00.182Z,17.04
2018-06-27T14:43:28.943Z,17.03
2018-06-27T14:45:58.080Z,17.02
2018-06-27T14:48:27.203Z,17.00
2018-06-27T14:50:56.026Z,17.00
2018-06-27T14:53:24.828Z,17.00
2018-06-27T14:55:53.776Z,17.04
2018-06-27T14:58:22.534Z,17.07
2018-06-27T15:00:51.260Z,17.07
2018-06-27T15:03:20.116Z,17.05
2018-06-27T15:05:49.439Z,17.03
2018-06-27T15:08:18.183Z,17.03
2018-06-27T15:10:46.983Z,17.02
2018-06-27T15:13:15.919Z,17.00
2018-06-27T15:15:44.938Z,17.00
2018-06-27T15:18:13.742Z,17.00
2018-06-27T15:20:42.485Z,16.95
2018-06-27T15:23:11.410Z,16.94
2018-06-27T15:25:40.114Z,16.86
2018-06-27T15:28:08.874Z,16.87
2018-06-27T15:33:05.275Z,16.62
2018-06-27T15:35:34.147Z,16.59
2018-06-27T15:38:02.894Z,16.58
2018-06-27T15:40:31.640Z,16.48
2018-06-27T15:43:00.419Z,16.49
2018-06-27T15:45:29.516Z,16.51
2018-06-27T15:47:58.284Z,16.53
2018-06-27T15:50:27.001Z,16.58
2018-06-27T15:52:55.706Z,16.62
2018-06-27T15:55:24.470Z,16.66
2018-06-27T15:57:53.171Z,16.67
2018-06-27T16:00:22.036Z,16.68
2018-06-27T16:02:50.811Z,16.67
2018-06-27T16:05:19.710Z,16.58
2018-06-27T16:07:48.481Z,16.60
2018-06-27T16:10:17.317Z,16.63
2018-06-27T16:12:46.098Z,16.64
2018-06-27T16:15:14.937Z,16.66
2018-06-27T16:17:43.769Z,16.70
2018-06-27T16:20:12.534Z,16.70
2018-06-27T16:22:41.289Z,16.68
2018-06-27T16:25:10.091Z,16.65
2018-06-27T16:27:38.938Z,16.67
2018-06-27T16:30:08.362Z,16.69
2018-06-27T16:32:37.069Z,16.71
2018-06-27T16:35:06.291Z,16.69
2018-06-27T16:37:35.455Z,16.68
2018-06-27T16:40:04.361Z,16.70
2018-06-27T16:42:33.056Z,16.78
2018-06-27T16:45:01.801Z,16.81
2018-06-27T16:47:30.595Z,16.84
2018-06-27T16:49:59.387Z,16.77
2018-06-27T16:52:28.443Z,16.74
2018-06-27T16:54:57.203Z,16.70
2018-06-27T16:57:26.035Z,16.71
2018-06-27T16:59:54.788Z,16.70
2018-06-27T17:02:23.558Z,16.66
2018-06-27T17:04:52.343Z,16.64
2018-06-27T17:07:21.448Z,16.66
2018-06-27T17:09:50.375Z,16.65
2018-06-27T17:12:19.148Z,16.71
2018-06-27T17:14:48.165Z,16.73
2018-06-27T17:17:16.969Z,16.68
2018-06-27T17:19:45.783Z,16.69
2018-06-27T17:22:14.615Z,16.70
2018-06-27T17:24:43.399Z,16.72
2018-06-27T17:27:12.223Z,16.72
2018-06-27T17:29:40.981Z,16.71
2018-06-27T17:32:09.774Z,16.74
2018-06-27T17:34:39.215Z,16.73
2018-06-27T17:37:08.172Z,16.77
2018-06-27T17:39:36.898Z,16.77
2018-06-27T17:42:06.946Z,16.72
2018-06-27T17:44:35.689Z,16.73
2018-06-27T17:47:04.538Z,16.78
2018-06-27T17:49:33.362Z,16.83
2018-06-27T17:52:02.125Z,16.77
2018-06-27T17:54:31.297Z,16.76
2018-06-27T17:57:01.202Z,16.79
2018-06-27T17:59:29.862Z,16.84
2018-06-27T18:01:58.607Z,16.77
2018-06-27T18:04:27.461Z,16.71
2018-06-27T18:06:56.238Z,16.75
2018-06-27T18:09:25.029Z,16.77
2018-06-27T18:11:53.924Z,16.76
2018-06-27T18:14:22.910Z,16.76
2018-06-27T18:16:52.069Z,16.68
2018-06-27T18:19:21.070Z,16.69
2018-06-27T18:21:49.940Z,16.65
2018-06-27T18:24:18.754Z,16.65
2018-06-27T18:26:47.608Z,16.65
2018-06-27T18:29:16.282Z,16.61
2018-06-27T18:31:45.058Z,16.57
2018-06-27T18:34:13.823Z,16.64
2018-06-27T18:36:42.594Z,16.58
2018-06-27T18:39:11.744Z,16.57
2018-06-27T18:41:41.045Z,16.60
2018-06-27T18:44:09.977Z,16.61
2018-06-27T18:46:38.722Z,16.60
2018-06-27T18:49:07.667Z,16.62
2018-06-27T18:51:37.511Z,16.60
2018-06-27T18:54:06.357Z,16.63
2018-06-27T18:56:35.088Z,16.62
2018-06-27T18:59:04.402Z,16.57
2018-06-27T19:01:33.393Z,16.59
2018-06-27T19:04:02.262Z,16.60
2018-06-27T19:06:31.083Z,16.64
2018-06-27T19:08:59.919Z,16.62
2018-06-27T19:11:28.794Z,16.55
2018-06-27T19:13:57.557Z,16.50
2018-06-27T19:16:26.346Z,16.51
2018-06-27T19:18:55.445Z,16.55
2018-06-27T19:21:24.321Z,16.56
2018-06-27T19:23:53.064Z,16.57
2018-06-27T19:26:21.862Z,16.59
2018-06-27T19:28:50.682Z,16.61
2018-06-27T19:31:19.486Z,16.61
2018-06-27T19:33:48.314Z,16.63
2018-06-27T19:38:45.084Z,16.67
2018-06-27T19:41:14.035Z,16.68
2018-06-27T19:43:42.959Z,16.63
2018-06-27T19:46:11.743Z,16.65
2018-06-27T19:48:40.930Z,16.62
2018-06-27T19:51:09.758Z,16.64
2018-06-27T19:53:38.514Z,16.68
2018-06-27T19:56:08.851Z,16.69
2018-06-27T19:58:37.577Z,16.74
2018-06-27T20:01:06.767Z,16.76
2018-06-27T20:03:35.534Z,16.78
2018-06-27T20:06:04.827Z,16.62
2018-06-27T20:08:33.613Z,16.51
2018-06-27T20:11:02.395Z,16.47
2018-06-27T20:13:31.197Z,16.43
2018-06-27T20:15:59.937Z,16.40
2018-06-27T20:18:29.127Z,16.40
2018-06-27T20:20:57.916Z,16.45
2018-06-27T20:23:26.726Z,16.40
2018-06-27T20:25:55.456Z,16.37
2018-06-27T20:28:24.558Z,16.39
2018-06-27T20:30:55.668Z,16.24
2018-06-27T20:33:24.424Z,16.14
2018-06-27T20:35:53.162Z,16.05
2018-06-27T20:38:21.892Z,16.01
2018-06-27T20:40:50.808Z,16.02
2018-06-27T20:43:19.564Z,16.00
2018-06-27T20:45:48.630Z,15.92
2018-06-27T20:48:17.400Z,15.87
2018-06-27T20:50:46.221Z,15.88
2018-06-27T20:53:15.022Z,15.93
2018-06-27T20:55:43.841Z,15.98
2018-06-27T20:58:12.581Z,16.02
2018-06-27T21:00:41.330Z,16.05
2018-06-27T21:03:10.047Z,16.09
2018-06-27T21:05:38.767Z,16.16
2018-06-27T21:08:07.529Z,16.21
2018-06-27T21:10:36.345Z,16.21
2018-06-27T21:13:05.199Z,16.23
2018-06-27T21:15:33.954Z,16.23
2018-06-27T21:18:02.699Z,16.16
2018-06-27T21:20:31.421Z,16.21
2018-06-27T21:23:00.226Z,16.18
2018-06-27T21:25:28.961Z,16.23
2018-06-27T21:27:57.753Z,16.24
2018-06-27T21:30:26.494Z,16.24
2018-06-27T21:32:55.220Z,16.21
2018-06-27T21:35:24.054Z,16.26
2018-06-27T21:37:52.952Z,16.29
2018-06-27T21:40:21.700Z,16.28
2018-06-27T21:42:50.415Z,16.30
2018-06-27T21:45:19.214Z,16.26
2018-06-27T21:47:48.046Z,16.22
2018-06-27T21:50:16.775Z,16.23
2018-06-27T21:52:46.136Z,16.16
2018-06-27T21:55:15.227Z,16.14
2018-06-27T21:57:43.999Z,16.21
2018-06-27T22:00:12.907Z,16.24
2018-06-27T22:02:41.726Z,16.26
2018-06-27T22:05:10.703Z,16.25
2018-06-27T22:07:39.478Z,16.28
2018-06-27T22:10:08.444Z,16.28
2018-06-27T22:12:37.266Z,16.29
2018-06-27T22:15:06.459Z,16.23
2018-06-27T22:17:35.339Z,16.29
2018-06-27T22:20:04.205Z,16.31
2018-06-27T22:22:32.990Z,16.23
2018-06-27T22:25:01.932Z,16.16
2018-06-27T22:27:30.817Z,16.14
2018-06-27T22:29:59.617Z,16.08
2018-06-27T22:32:28.624Z,16.05
2018-06-27T22:34:57.398Z,15.97
2018-06-27T22:37:26.214Z,15.98
2018-06-27T22:39:55.036Z,15.98
2018-06-27T22:42:23.961Z,16.00
2018-06-27T22:44:53.373Z,16.06
2018-06-27T22:47:22.218Z,16.07
2018-06-27T22:49:51.079Z,16.17
2018-06-27T22:52:19.995Z,16.18
2018-06-27T22:54:48.880Z,16.20
2018-06-27T22:57:18.119Z,16.22
2018-06-27T22:59:46.906Z,16.25
2018-06-27T23:02:15.710Z,16.31
2018-06-27T23:04:44.490Z,16.28
2018-06-27T23:07:13.310Z,16.33
2018-06-27T23:09:42.139Z,16.38
2018-06-27T23:12:10.910Z,16.35
2018-06-27T23:14:39.826Z,16.34
2018-06-27T23:17:08.650Z,16.36
2018-06-27T23:19:37.859Z,16.33
2018-06-27T23:22:06.844Z,16.35
2018-06-27T23:24:35.780Z,16.34
2018-06-27T23:27:04.884Z,16.34
2018-06-27T23:29:33.790Z,16.34
2018-06-27T23:32:02.708Z,16.37
2018-06-27T23:34:31.599Z,16.41
2018-06-27T23:37:00.359Z,16.35
2018-06-27T23:39:29.146Z,16.27
2018-06-27T23:41:58.094Z,16.27
2018-06-27T23:44:26.983Z,16.24
2018-06-27T23:46:55.916Z,16.24
2018-06-27T23:49:24.793Z,16.23
2018-06-27T23:51:53.743Z,16.26
2018-06-27T23:54:22.644Z,16.25
2018-06-27T23:56:51.452Z,16.23
2018-06-27T23:59:20.365Z,16.21
